Time;durP1;ratioP1;P1;durP2;ratioP2;P2;SDS_P1;SDS_P2;PMS_P1;PMS_P2;Temp;Humidity;BMP_temperature;BMP_pressure;BME280_temperature;BME280_humidity;BME280_pressure;Samples;Min_cycle;Max_cycle;Signal;HPM_P1;HPM_P2
2022/01/07 00:01:06;;;;;;;14.73;6.60;;;4.50;99.90;;;;;;5047148;28;20029;-43
2022/01/07 00:03:32;;;;;;;10.05;5.57;;;4.50;99.90;;;;;;5046956;28;20477;-43
2022/01/07 00:06:10;;;;;;;11.43;5.20;;;4.50;99.90;;;;;;5047456;28;20033;-43
2022/01/07 00:08:36;;;;;;;10.07;5.90;;;4.50;99.90;;;;;;5046784;28;20024;-43
2022/01/07 00:11:05;;;;;;;14.40;5.25;;;4.50;99.90;;;;;;5047170;28;20041;-43
2022/01/07 00:13:31;;;;;;;10.35;5.70;;;4.50;99.90;;;;;;5046486;28;20151;-43
2022/01/07 00:15:56;;;;;;;12.38;4.85;;;4.50;99.90;;;;;;5047053;28;20119;-43
2022/01/07 00:18:23;;;;;;;9.90;5.25;;;4.50;99.90;;;;;;5047490;28;20452;-43
2022/01/07 00:20:49;;;;;;;9.63;4.95;;;4.50;99.90;;;;;;5044961;28;20029;-42
2022/01/07 00:23:14;;;;;;;10.35;5.47;;;4.60;99.90;;;;;;5047303;28;20029;-43
2022/01/07 00:25:40;;;;;;;10.38;4.85;;;4.60;99.90;;;;;;5036269;28;20036;-46
2022/01/07 00:28:05;;;;;;;10.98;5.18;;;4.50;99.90;;;;;;5046253;28;21307;-41
2022/01/07 00:30:33;;;;;;;12.32;4.97;;;4.60;99.90;;;;;;5046809;28;20512;-43
2022/01/07 00:32:59;;;;;;;14.60;6.07;;;4.50;99.90;;;;;;5047069;28;20083;-42
2022/01/07 00:35:24;;;;;;;9.95;4.60;;;4.50;99.90;;;;;;5046760;28;20017;-42
2022/01/07 00:37:50;;;;;;;13.57;5.20;;;4.50;99.90;;;;;;5046872;28;20036;-42
2022/01/07 00:40:19;;;;;;;10.95;5.45;;;4.50;99.90;;;;;;5046705;28;20670;-44
2022/01/07 00:42:51;;;;;;;16.40;5.47;;;4.50;99.90;;;;;;5046960;28;20029;-43
2022/01/07 00:45:18;;;;;;;11.02;5.18;;;4.40;99.90;;;;;;5046988;28;20028;-42
2022/01/07 00:47:44;;;;;;;10.15;5.68;;;4.40;99.90;;;;;;5027055;28;20017;-43
2022/01/07 00:50:10;;;;;;;12.80;5.75;;;4.40;99.90;;;;;;5040448;28;20699;-43
2022/01/07 00:52:36;;;;;;;11.07;5.13;;;4.30;99.90;;;;;;5046228;28;20048;-42
2022/01/07 00:55:03;;;;;;;9.65;5.38;;;4.30;99.90;;;;;;5046679;28;20025;-42
2022/01/07 00:57:28;;;;;;;11.50;5.53;;;4.20;99.90;;;;;;5046692;28;20071;-42
2022/01/07 00:59:54;;;;;;;17.80;6.15;;;4.20;99.90;;;;;;5046381;28;20021;-43
2022/01/07 01:02:19;;;;;;;10.77;5.55;;;4.10;99.90;;;;;;5047256;28;20036;-43
2022/01/07 01:04:45;;;;;;;11.35;6.07;;;4.10;99.90;;;;;;5049579;28;20013;-43
2022/01/07 01:07:14;;;;;;;11.13;5.68;;;4.10;99.90;;;;;;5053647;28;20037;-42
2022/01/07 01:09:40;;;;;;;11.05;5.35;;;4.00;99.90;;;;;;5052942;28;20017;-43
2022/01/07 01:12:06;;;;;;;8.05;5.25;;;4.00;99.90;;;;;;5052633;28;20041;-43
2022/01/07 01:14:33;;;;;;;12.32;5.35;;;4.00;99.90;;;;;;5053222;28;20016;-43
2022/01/07 01:16:59;;;;;;;12.32;5.50;;;4.00;99.90;;;;;;5052173;28;20465;-43
2022/01/07 01:19:26;;;;;;;9.38;5.88;;;4.00;99.90;;;;;;5052958;28;20405;-42
2022/01/07 01:21:52;;;;;;;11.70;5.95;;;3.90;99.90;;;;;;5053151;28;20657;-42
2022/01/07 01:24:17;;;;;;;13.05;6.13;;;3.90;99.90;;;;;;5052973;28;20785;-43
2022/01/07 01:26:43;;;;;;;12.95;6.13;;;3.90;99.90;;;;;;5052503;28;20531;-43
2022/01/07 01:29:08;;;;;;;12.10;5.93;;;3.90;99.90;;;;;;5053114;28;20148;-43
2022/01/07 01:31:36;;;;;;;15.13;5.72;;;3.90;99.90;;;;;;5052303;28;20043;-43
2022/01/07 01:34:03;;;;;;;9.80;5.35;;;3.80;99.90;;;;;;5053006;28;20083;-42
2022/01/07 01:36:28;;;;;;;16.50;6.40;;;3.80;99.90;;;;;;5052845;28;20017;-44
2022/01/07 01:38:54;;;;;;;10.57;5.70;;;3.80;99.90;;;;;;5052996;28;20020;-42
2022/01/07 01:41:20;;;;;;;13.00;5.97;;;3.80;99.90;;;;;;5052625;28;20029;-42
2022/01/07 01:43:48;;;;;;;11.02;6.15;;;3.70;99.90;;;;;;5052720;28;20399;-43
2022/01/07 01:46:18;;;;;;;7.85;4.95;;;3.80;99.90;;;;;;5052595;28;20043;-42
2022/01/07 01:48:45;;;;;;;11.50;5.45;;;3.80;99.90;;;;;;5052403;28;20061;-43
2022/01/07 01:51:12;;;;;;;10.93;5.40;;;3.80;99.90;;;;;;5052836;28;20055;-43
2022/01/07 01:53:44;;;;;;;9.30;4.78;;;3.80;99.90;;;;;;5041440;28;20119;-42
2022/01/07 01:56:10;;;;;;;8.63;5.38;;;3.80;99.90;;;;;;5052430;28;20468;-43
2022/01/07 01:58:36;;;;;;;9.50;5.35;;;3.80;99.90;;;;;;5052835;28;20714;-43
2022/01/07 02:01:02;;;;;;;9.07;5.60;;;3.80;99.90;;;;;;5052359;28;20148;-39
2022/01/07 02:03:27;;;;;;;12.05;5.72;;;3.90;99.90;;;;;;5052448;28;20457;-40
2022/01/07 02:05:54;;;;;;;11.93;5.25;;;3.90;99.90;;;;;;5052512;28;20047;-42
2022/01/07 02:08:20;;;;;;;9.07;4.90;;;3.90;99.90;;;;;;5052824;28;20075;-42
2022/01/07 02:10:45;;;;;;;10.75;4.68;;;3.90;99.90;;;;;;5052955;28;20655;-44
2022/01/07 02:13:11;;;;;;;10.27;5.63;;;3.90;99.90;;;;;;5052153;28;20098;-42
2022/01/07 02:15:37;;;;;;;9.68;4.72;;;4.00;99.90;;;;;;5050188;28;20028;-42
2022/01/07 02:18:03;;;;;;;11.38;4.88;;;4.00;99.90;;;;;;5049520;28;20021;-42
2022/01/07 02:20:30;;;;;;;9.57;5.65;;;4.00;99.90;;;;;;5048776;28;20060;-43
2022/01/07 02:22:57;;;;;;;10.93;5.07;;;4.00;99.90;;;;;;5049049;28;20116;-43
2022/01/07 02:25:24;;;;;;;11.15;5.40;;;4.00;99.90;;;;;;5049503;28;20697;-42
2022/01/07 02:27:50;;;;;;;10.65;5.20;;;4.00;99.90;;;;;;5048652;28;20039;-43
2022/01/07 02:30:22;;;;;;;13.80;5.20;;;4.00;99.90;;;;;;5049185;28;20578;-44
2022/01/07 02:32:48;;;;;;;10.98;5.47;;;4.00;99.90;;;;;;5049100;28;20491;-43
2022/01/07 02:35:17;;;;;;;10.23;5.05;;;4.00;99.90;;;;;;5048897;28;20104;-43
2022/01/07 02:37:42;;;;;;;12.13;5.50;;;4.00;99.90;;;;;;5048913;28;20033;-42
2022/01/07 02:40:09;;;;;;;11.95;5.45;;;4.00;99.90;;;;;;5049481;28;20085;-42
2022/01/07 02:42:35;;;;;;;7.85;4.45;;;4.00;99.90;;;;;;5048049;28;20025;-43
2022/01/07 02:45:05;;;;;;;8.15;4.90;;;4.00;99.90;;;;;;5048594;28;20029;-42
2022/01/07 02:47:37;;;;;;;8.43;4.82;;;4.10;99.90;;;;;;5048788;28;20028;-43
2022/01/07 02:50:05;;;;;;;6.97;4.70;;;4.00;99.90;;;;;;5048388;28;20044;-43
2022/01/07 02:52:31;;;;;;;8.15;4.50;;;4.10;99.90;;;;;;5048481;28;20049;-43
2022/01/07 02:54:57;;;;;;;9.88;4.75;;;4.10;99.90;;;;;;5048891;28;20029;-42
2022/01/07 02:57:23;;;;;;;9.60;4.90;;;4.00;99.90;;;;;;5048264;28;20025;-44
2022/01/07 02:59:48;;;;;;;10.77;4.70;;;4.00;99.90;;;;;;5048603;28;20024;-44
2022/01/07 03:02:14;;;;;;;8.80;4.57;;;4.00;99.90;;;;;;5048786;28;20025;-42
2022/01/07 03:04:40;;;;;;;9.63;4.15;;;4.00;99.90;;;;;;5048127;28;20037;-43
2022/01/07 03:07:08;;;;;;;7.88;4.40;;;4.00;99.90;;;;;;5048630;28;20118;-43
2022/01/07 03:09:33;;;;;;;9.52;4.88;;;4.00;99.90;;;;;;5048374;28;20025;-42
2022/01/07 03:11:59;;;;;;;11.57;4.43;;;4.00;99.90;;;;;;5048456;28;20050;-43
2022/01/07 03:14:25;;;;;;;8.27;4.60;;;4.00;99.90;;;;;;5048450;28;20017;-43
2022/01/07 03:16:51;;;;;;;9.70;4.68;;;4.00;99.90;;;;;;5048380;28;20385;-43
2022/01/07 03:19:16;;;;;;;9.23;4.32;;;4.00;99.90;;;;;;5048145;28;20028;-44
2022/01/07 03:21:42;;;;;;;11.32;4.88;;;4.00;99.90;;;;;;5048442;28;20969;-43
2022/01/07 03:24:07;;;;;;;10.63;4.20;;;4.00;99.90;;;;;;5048015;28;20028;-43
2022/01/07 03:26:33;;;;;;;6.32;4.15;;;4.00;99.90;;;;;;5048029;28;20480;-43
2022/01/07 03:28:58;;;;;;;8.40;3.83;;;4.00;99.90;;;;;;5048756;28;20029;-44
2022/01/07 03:31:24;;;;;;;10.05;4.30;;;4.00;99.90;;;;;;5047197;28;20036;-47
2022/01/07 03:33:50;;;;;;;7.32;3.95;;;4.00;99.90;;;;;;5048032;28;20481;-42
2022/01/07 03:36:15;;;;;;;10.30;4.82;;;4.00;99.90;;;;;;5047833;28;20082;-43
2022/01/07 03:38:41;;;;;;;10.20;4.38;;;4.00;99.90;;;;;;5047517;28;20040;-44
2022/01/07 03:41:07;;;;;;;5.97;4.20;;;4.00;99.90;;;;;;5048042;28;20032;-42
2022/01/07 03:43:35;;;;;;;8.48;4.22;;;4.00;99.90;;;;;;5047430;28;20044;-42
2022/01/07 03:46:04;;;;;;;6.50;3.70;;;4.00;99.90;;;;;;5047587;28;20071;-43
2022/01/07 03:48:29;;;;;;;9.77;4.43;;;4.00;99.90;;;;;;5047481;28;20489;-43
2022/01/07 03:50:55;;;;;;;6.57;3.65;;;4.00;99.90;;;;;;5047415;28;20048;-42
2022/01/07 03:53:24;;;;;;;9.13;4.43;;;4.00;99.90;;;;;;5047232;28;20547;-43
2022/01/07 03:55:51;;;;;;;6.75;3.70;;;4.00;99.90;;;;;;5047542;28;20100;-43
2022/01/07 03:58:16;;;;;;;5.63;3.78;;;4.00;99.90;;;;;;5048165;28;20017;-44
2022/01/07 04:00:45;;;;;;;6.32;3.70;;;4.00;99.90;;;;;;5046643;28;20028;-42
2022/01/07 04:03:15;;;;;;;7.60;4.25;;;4.00;99.90;;;;;;5047464;28;20782;-41
2022/01/07 04:05:40;;;;;;;7.43;4.20;;;4.00;99.90;;;;;;5047081;28;20032;-43
2022/01/07 04:08:07;;;;;;;5.18;3.70;;;4.00;99.90;;;;;;5036011;28;20028;-43
2022/01/07 04:10:34;;;;;;;6.72;3.78;;;4.00;99.90;;;;;;5047407;28;20125;-42
2022/01/07 04:12:59;;;;;;;7.85;3.90;;;3.90;99.90;;;;;;5047092;28;20491;-42
2022/01/07 04:15:25;;;;;;;5.57;3.50;;;3.90;99.90;;;;;;5047054;28;20036;-43
2022/01/07 04:17:53;;;;;;;4.97;3.22;;;4.00;99.90;;;;;;5045980;28;20041;-42
2022/01/07 04:20:21;;;;;;;7.43;4.00;;;3.90;99.90;;;;;;5046972;28;20039;-44
2022/01/07 04:22:47;;;;;;;6.57;3.78;;;4.00;99.90;;;;;;5046608;28;20082;-43
2022/01/07 04:25:17;;;;;;;7.97;3.95;;;4.00;99.90;;;;;;5047526;28;20025;-44
2022/01/07 04:27:47;;;;;;;5.50;3.97;;;4.00;99.90;;;;;;5046407;28;20100;-44
2022/01/07 04:30:14;;;;;;;7.47;3.80;;;3.90;99.90;;;;;;5027012;28;20454;-42
2022/01/07 04:32:40;;;;;;;7.85;3.85;;;3.90;99.90;;;;;;5041973;28;20013;-43
2022/01/07 04:35:06;;;;;;;6.38;3.78;;;4.00;99.90;;;;;;5046698;28;20063;-41
2022/01/07 04:37:32;;;;;;;8.07;4.22;;;3.90;99.90;;;;;;5046746;28;20025;-42
2022/01/07 04:39:57;;;;;;;6.45;4.45;;;3.90;99.90;;;;;;5046667;28;20025;-43
2022/01/07 04:42:23;;;;;;;5.50;4.05;;;3.80;99.90;;;;;;5045998;28;20446;-43
2022/01/07 04:44:49;;;;;;;6.15;4.00;;;3.80;99.90;;;;;;5046771;28;20101;-45
2022/01/07 04:47:14;;;;;;;5.35;3.72;;;3.80;99.90;;;;;;5047088;28;20016;-43
2022/01/07 04:49:40;;;;;;;5.65;4.28;;;3.70;99.90;;;;;;5046203;28;20230;-42
2022/01/07 04:52:06;;;;;;;5.97;3.97;;;3.70;99.90;;;;;;5046357;28;20052;-43
2022/01/07 04:54:32;;;;;;;4.68;3.35;;;3.70;99.90;;;;;;5046698;28;20035;-43
2022/01/07 04:56:58;;;;;;;3.78;3.20;;;3.70;99.90;;;;;;5046011;28;20025;-42
2022/01/07 04:59:25;;;;;;;6.75;3.72;;;3.70;99.90;;;;;;5046635;28;20104;-43
2022/01/07 05:01:50;;;;;;;5.30;3.70;;;3.70;99.90;;;;;;5046427;28;20044;-42
2022/01/07 05:04:16;;;;;;;5.20;4.15;;;3.70;99.90;;;;;;5046968;28;20059;-42
2022/01/07 05:06:45;;;;;;;5.00;3.95;;;3.70;99.90;;;;;;5046760;28;20546;-41
2022/01/07 05:09:17;;;;;;;5.60;3.63;;;3.70;99.90;;;;;;5046107;28;20033;-43
2022/01/07 05:11:47;;;;;;;7.35;4.05;;;3.80;99.90;;;;;;5046894;28;20064;-43
2022/01/07 05:14:14;;;;;;;8.30;4.30;;;3.80;99.90;;;;;;5046655;28;20057;-45
2022/01/07 05:16:40;;;;;;;5.60;4.10;;;3.80;99.90;;;;;;5046208;28;20104;-42
2022/01/07 05:19:05;;;;;;;7.32;3.85;;;3.90;99.90;;;;;;5046397;28;20399;-43
2022/01/07 05:21:31;;;;;;;7.38;3.80;;;3.90;99.90;;;;;;5046388;28;20041;-43
2022/01/07 05:23:57;;;;;;;6.50;4.00;;;3.90;99.90;;;;;;5045789;28;20021;-43
2022/01/07 05:26:23;;;;;;;6.10;3.60;;;3.90;99.90;;;;;;5046763;28;20023;-43
2022/01/07 05:28:50;;;;;;;6.55;3.95;;;3.90;99.90;;;;;;5046050;28;20021;-42
2022/01/07 05:31:17;;;;;;;6.50;4.40;;;3.90;99.90;;;;;;5046081;28;20090;-42
2022/01/07 05:33:42;;;;;;;6.47;4.03;;;3.90;99.90;;;;;;5045809;28;20472;-42
2022/01/07 05:36:08;;;;;;;6.00;5.00;;;3.90;99.90;;;;;;5046720;28;20045;-43
2022/01/07 05:38:33;;;;;;;9.00;4.07;;;4.00;99.90;;;;;;5045741;28;20364;-43
2022/01/07 05:40:59;;;;;;;6.82;4.15;;;4.00;99.90;;;;;;5046222;28;20564;-43
2022/01/07 05:43:26;;;;;;;6.38;3.97;;;4.00;99.90;;;;;;5046630;28;20029;-44
2022/01/07 05:45:52;;;;;;;7.30;4.50;;;4.00;99.90;;;;;;5045529;28;20033;-43
2022/01/07 05:48:17;;;;;;;6.15;4.32;;;4.00;99.90;;;;;;5046691;28;20028;-42
2022/01/07 05:50:43;;;;;;;5.85;4.00;;;4.10;99.90;;;;;;5046214;28;20123;-43
2022/01/07 05:53:09;;;;;;;8.85;5.05;;;4.10;99.90;;;;;;5049499;28;20044;-43
2022/01/07 05:55:35;;;;;;;6.90;4.95;;;4.10;99.90;;;;;;5049913;28;20385;-43
2022/01/07 05:58:01;;;;;;;9.05;5.32;;;4.10;99.90;;;;;;5049624;28;20091;-42
2022/01/07 06:00:26;;;;;;;6.70;4.78;;;4.20;99.90;;;;;;5049716;28;20025;-43
2022/01/07 06:02:52;;;;;;;7.63;5.07;;;4.20;99.90;;;;;;5050149;28;20116;-43
2022/01/07 06:05:17;;;;;;;9.50;4.80;;;4.20;99.90;;;;;;5049581;28;20017;-42
2022/01/07 06:07:43;;;;;;;9.15;5.68;;;4.20;99.90;;;;;;5049905;28;20124;-43
2022/01/07 06:10:09;;;;;;;6.55;5.53;;;4.20;99.90;;;;;;5049510;28;20064;-43
2022/01/07 06:12:34;;;;;;;8.55;5.93;;;4.30;99.90;;;;;;5049336;28;20473;-42
2022/01/07 06:15:00;;;;;;;7.93;6.30;;;4.30;99.90;;;;;;5049368;28;20504;-43
2022/01/07 06:17:26;;;;;;;7.72;6.50;;;4.30;99.90;;;;;;5050178;28;20029;-43
2022/01/07 06:19:52;;;;;;;9.65;6.57;;;4.40;99.90;;;;;;5049172;28;20044;-43
2022/01/07 06:22:17;;;;;;;8.13;6.18;;;4.40;99.90;;;;;;5049705;28;20431;-42
2022/01/07 06:24:44;;;;;;;8.55;6.45;;;4.40;99.90;;;;;;5049639;28;20500;-44
2022/01/07 06:27:10;;;;;;;8.75;6.50;;;4.40;99.90;;;;;;5048754;28;20475;-42
2022/01/07 06:29:35;;;;;;;7.72;6.82;;;4.40;99.90;;;;;;5049645;28;20056;-43
2022/01/07 06:32:01;;;;;;;9.68;7.40;;;4.50;99.90;;;;;;5049390;28;20132;-43
2022/01/07 06:34:26;;;;;;;11.32;8.25;;;4.50;99.90;;;;;;5048603;28;20033;-42
2022/01/07 06:36:52;;;;;;;10.75;7.28;;;4.50;99.90;;;;;;5048726;28;20017;-41
2022/01/07 06:39:22;;;;;;;11.73;8.02;;;4.50;99.90;;;;;;5049820;28;20468;-42
2022/01/07 06:41:49;;;;;;;10.18;8.05;;;4.60;99.90;;;;;;5048453;28;20025;-43
2022/01/07 06:44:15;;;;;;;11.30;7.18;;;4.60;99.90;;;;;;5049605;28;20017;-43
2022/01/07 06:46:41;;;;;;;8.35;7.03;;;4.60;99.90;;;;;;5048591;28;20108;-43
2022/01/07 06:49:06;;;;;;;10.70;8.25;;;4.70;99.90;;;;;;5048467;28;20064;-43
2022/01/07 06:51:32;;;;;;;9.73;7.78;;;4.70;99.90;;;;;;5048388;28;20111;-43
2022/01/07 06:53:58;;;;;;;13.15;8.35;;;4.70;99.90;;;;;;5058824;28;20485;-42
2022/01/07 06:56:25;;;;;;;9.75;7.68;;;4.70;99.90;;;;;;5048402;28;20045;-42
2022/01/07 06:58:51;;;;;;;13.63;8.40;;;4.70;99.90;;;;;;5047899;28;20382;-43
2022/01/07 07:01:17;;;;;;;10.48;8.02;;;4.70;99.90;;;;;;5045446;28;20028;-43
2022/01/07 07:03:42;;;;;;;11.35;7.85;;;4.80;99.90;;;;;;5047633;28;20496;-42
2022/01/07 07:06:08;;;;;;;10.25;7.95;;;4.80;99.90;;;;;;5048041;28;20538;-41
2022/01/07 07:08:34;;;;;;;10.57;8.02;;;4.80;99.90;;;;;;5047382;28;20028;-42
2022/01/07 07:10:59;;;;;;;9.50;7.35;;;4.90;99.90;;;;;;5047559;28;20063;-42
2022/01/07 07:13:25;;;;;;;12.15;7.88;;;4.90;99.90;;;;;;5047524;28;20112;-41
2022/01/07 07:15:51;;;;;;;12.77;9.05;;;4.90;99.90;;;;;;5047147;28;20045;-42
2022/01/07 07:18:17;;;;;;;13.15;9.10;;;4.90;99.90;;;;;;5047719;28;20033;-43
2022/01/07 07:20:46;;;;;;;13.90;9.40;;;4.90;99.90;;;;;;5047888;28;20033;-45
2022/01/07 07:23:12;;;;;;;11.80;9.15;;;4.90;99.90;;;;;;5046296;28;20029;-41
2022/01/07 07:25:37;;;;;;;13.18;9.30;;;4.90;99.90;;;;;;5048737;28;20032;-43
2022/01/07 07:28:03;;;;;;;15.23;9.52;;;5.00;99.90;;;;;;5048238;28;20025;-43
2022/01/07 07:30:35;;;;;;;12.30;9.32;;;4.90;99.90;;;;;;5045861;28;20041;-44
2022/01/07 07:33:30;;;;;;;13.02;8.98;;;5.00;99.90;;;;;;5047656;28;20025;-42
2022/01/07 07:38:35;;;;;;;13.85;9.43;;;5.00;99.90;;;;;;5047337;28;20036;-43
2022/01/07 07:41:01;;;;;;;12.65;8.48;;;5.10;99.90;;;;;;5048164;28;20033;-42
2022/01/07 07:43:30;;;;;;;11.52;9.00;;;5.10;99.90;;;;;;5047499;28;20019;-43
2022/01/07 07:45:55;;;;;;;14.60;9.70;;;5.10;99.90;;;;;;5047425;28;20017;-43
2022/01/07 07:48:24;;;;;;;15.35;9.43;;;5.10;99.90;;;;;;5047872;28;20024;-43
2022/01/07 07:50:49;;;;;;;18.88;9.27;;;5.10;99.90;;;;;;5045538;28;20036;-44
2022/01/07 07:53:15;;;;;;;17.63;9.73;;;5.10;99.90;;;;;;5047984;28;20025;-44
2022/01/07 07:55:40;;;;;;;14.68;10.38;;;5.10;99.90;;;;;;5047628;28;20021;-44
2022/01/07 07:58:06;;;;;;;11.50;9.27;;;5.10;99.90;;;;;;5046865;28;20017;-42
2022/01/07 08:00:32;;;;;;;16.08;10.15;;;5.20;99.90;;;;;;5047411;28;20032;-43
2022/01/07 08:02:58;;;;;;;12.95;9.02;;;5.20;99.90;;;;;;5047959;28;20021;-43
2022/01/07 08:05:24;;;;;;;10.52;9.18;;;5.20;99.90;;;;;;5046754;28;20029;-41
2022/01/07 08:07:52;;;;;;;14.43;9.07;;;5.20;99.90;;;;;;5047216;28;20032;-42
2022/01/07 08:10:23;;;;;;;15.77;9.88;;;5.20;99.90;;;;;;5047282;28;20024;-42
2022/01/07 08:18:23;;;;;;;17.35;9.43;;;5.30;99.90;;;;;;5047865;28;20094;-44
2022/01/07 08:20:50;;;;;;;13.57;9.25;;;5.30;99.90;;;;;;5046117;28;20021;-43
2022/01/07 08:23:15;;;;;;;12.35;9.10;;;5.30;99.90;;;;;;5047530;28;20029;-43
2022/01/07 08:25:41;;;;;;;14.32;9.85;;;5.30;99.90;;;;;;5046297;28;20044;-43
2022/01/07 08:28:08;;;;;;;13.02;9.00;;;5.30;99.90;;;;;;5047081;28;20033;-44
2022/01/07 08:30:37;;;;;;;14.02;10.10;;;5.30;99.90;;;;;;5047173;28;20065;-45
2022/01/07 08:35:50;;;;;;;14.05;9.85;;;5.40;99.90;;;;;;5045845;28;20095;-42
2022/01/07 08:38:16;;;;;;;12.50;9.20;;;5.40;99.90;;;;;;5047500;28;20029;-43
2022/01/07 08:40:42;;;;;;;13.20;9.52;;;5.40;99.90;;;;;;5046024;28;20025;-42
2022/01/07 08:43:08;;;;;;;14.63;10.02;;;5.40;99.90;;;;;;5046391;28;20461;-43
2022/01/07 08:45:34;;;;;;;14.60;10.20;;;5.40;99.90;;;;;;5045688;28;20021;-43
2022/01/07 08:47:59;;;;;;;16.77;9.57;;;5.50;99.90;;;;;;5046055;28;20025;-43
2022/01/07 08:50:25;;;;;;;22.15;10.77;;;5.50;99.90;;;;;;5046560;28;20020;-43
2022/01/07 08:52:52;;;;;;;14.25;10.23;;;5.50;99.90;;;;;;5046762;28;20482;-43
2022/01/07 08:55:18;;;;;;;13.63;10.13;;;5.50;99.90;;;;;;5046189;28;20013;-42
2022/01/07 08:57:44;;;;;;;11.98;9.07;;;5.60;99.90;;;;;;5046605;28;20044;-43
2022/01/07 09:00:10;;;;;;;15.35;10.73;;;5.60;99.90;;;;;;5046364;28;20499;-42
2022/01/07 09:02:36;;;;;;;11.65;10.43;;;5.60;99.90;;;;;;5046101;28;20033;-43
2022/01/07 09:05:01;;;;;;;11.23;9.32;;;5.60;99.90;;;;;;5046941;28;20033;-43
2022/01/07 09:07:30;;;;;;;12.77;9.73;;;5.60;99.90;;;;;;5045501;28;20439;-43
2022/01/07 09:09:55;;;;;;;10.73;8.75;;;5.70;99.90;;;;;;5045438;28;20038;-43
2022/01/07 09:12:21;;;;;;;14.45;10.65;;;5.70;99.90;;;;;;5046159;28;20041;-44
2022/01/07 09:14:46;;;;;;;15.13;10.35;;;5.70;99.90;;;;;;5045378;28;20028;-43
2022/01/07 09:17:12;;;;;;;15.98;10.65;;;5.70;99.90;;;;;;5045859;28;20057;-43
2022/01/07 09:19:37;;;;;;;12.85;10.32;;;5.70;99.90;;;;;;5046448;28;20033;-44
2022/01/07 09:22:03;;;;;;;15.82;10.15;;;5.80;99.90;;;;;;5044022;28;20091;-43
2022/01/07 09:24:29;;;;;;;12.57;9.43;;;5.80;99.90;;;;;;5044955;28;20475;-43
2022/01/07 09:26:56;;;;;;;14.38;9.30;;;5.80;99.90;;;;;;5050331;28;20032;-43
2022/01/07 09:29:26;;;;;;;14.65;10.23;;;5.80;99.90;;;;;;5050117;28;20546;-43
2022/01/07 09:31:53;;;;;;;12.30;8.90;;;5.80;99.90;;;;;;5048105;28;20041;-42
2022/01/07 09:34:19;;;;;;;15.18;10.13;;;5.80;99.90;;;;;;5050490;28;20021;-43
2022/01/07 09:36:44;;;;;;;14.05;9.98;;;5.80;99.90;;;;;;5050088;28;20055;-43
2022/01/07 09:39:10;;;;;;;10.13;8.77;;;5.80;99.90;;;;;;5050077;28;20151;-43
2022/01/07 09:41:36;;;;;;;14.63;9.43;;;5.90;99.90;;;;;;5050196;28;20025;-40
2022/01/07 09:44:01;;;;;;;11.18;8.60;;;6.00;99.90;;;;;;5049459;28;20048;-43
2022/01/07 09:46:30;;;;;;;10.68;8.18;;;6.00;99.90;;;;;;5050152;28;20374;-45
2022/01/07 09:48:56;;;;;;;11.52;8.52;;;6.00;99.90;;;;;;5049345;28;20021;-43
2022/01/07 09:51:22;;;;;;;12.05;8.93;;;6.10;99.90;;;;;;5049184;28;20052;-42
2022/01/07 09:53:48;;;;;;;13.32;9.45;;;6.10;99.90;;;;;;5049856;28;20108;-44
2022/01/07 09:56:14;;;;;;;12.80;9.57;;;6.10;99.90;;;;;;5050516;28;20115;-44
2022/01/07 09:58:40;;;;;;;13.00;9.93;;;6.20;99.90;;;;;;5049390;28;20024;-43
2022/01/07 10:01:09;;;;;;;14.80;9.57;;;6.10;99.90;;;;;;5049447;28;20052;-43
2022/01/07 10:03:40;;;;;;;16.45;9.93;;;6.20;99.90;;;;;;5049732;28;20025;-43
2022/01/07 10:06:38;;;;;;;12.80;9.65;;;6.20;99.90;;;;;;5049517;28;20025;-43
2022/01/07 10:09:10;;;;;;;11.32;8.63;;;6.20;99.90;;;;;;5036652;28;20056;-42
2022/01/07 10:11:38;;;;;;;10.93;8.80;;;6.20;99.90;;;;;;5029293;28;20103;-43
2022/01/07 10:14:21;;;;;;;15.77;9.77;;;6.30;99.90;;;;;;5044493;28;20044;-43
2022/01/07 10:16:48;;;;;;;;;;;6.30;99.90;;;;;;5031975;28;20084;-43
2022/01/07 10:19:36;;;;;;;13.18;9.32;;;6.40;99.90;;;;;;5044026;28;20360;-42
2022/01/07 10:22:08;;;;;;;13.68;9.75;;;6.40;99.90;;;;;;5029970;28;20021;-43
2022/01/07 10:24:57;;;;;;;16.42;11.18;;;6.50;99.90;;;;;;5045297;28;20065;-44
2022/01/07 10:27:33;;;;;;;15.77;9.90;;;6.60;99.90;;;;;;5029090;28;20037;-42
2022/01/07 10:29:59;;;;;;;13.65;9.52;;;6.60;99.90;;;;;;5047585;28;20024;-44
2022/01/07 10:32:27;;;;;;;14.55;9.13;;;6.50;99.90;;;;;;5048728;28;20041;-44
2022/01/07 10:35:14;;;;;;;12.90;9.52;;;6.50;99.90;;;;;;5048891;28;20027;-44
2022/01/07 10:37:53;;;;;;;15.43;9.15;;;6.40;99.90;;;;;;5027830;28;20029;-44
2022/01/07 10:40:26;;;;;;;15.27;9.98;;;6.30;99.90;;;;;;5047168;28;20021;-43
2022/01/07 10:43:12;;;;;;;13.32;9.07;;;6.30;99.90;;;;;;5048739;28;20080;-43
2022/01/07 10:45:39;;;;;;;15.30;9.50;;;6.20;99.90;;;;;;5049299;28;20035;-44
2022/01/07 10:48:07;;;;;;;12.10;9.43;;;6.30;99.90;;;;;;5048864;28;20104;-43
2022/01/07 10:50:37;;;;;;;15.15;9.13;;;6.30;99.90;;;;;;5048287;28;20028;-48
2022/01/07 10:53:28;;;;;;;16.75;9.80;;;6.40;99.90;;;;;;5048607;28;20028;-43
2022/01/07 10:55:56;;;;;;;13.77;8.65;;;6.40;99.90;;;;;;5049201;28;20032;-43
2022/01/07 10:58:22;;;;;;;13.73;8.68;;;6.40;99.90;;;;;;5049076;28;20041;-43
2022/01/07 11:00:47;;;;;;;14.43;8.05;;;6.40;99.90;;;;;;5047842;28;20032;-43
2022/01/07 11:03:13;;;;;;;13.07;8.93;;;6.40;99.90;;;;;;5048739;28;20025;-44
2022/01/07 11:05:39;;;;;;;14.63;9.13;;;6.40;99.90;;;;;;5048787;28;20075;-43
2022/01/07 11:08:04;;;;;;;10.02;7.97;;;6.40;99.90;;;;;;5048077;28;20033;-43
2022/01/07 11:10:30;;;;;;;11.65;8.07;;;6.50;99.90;;;;;;5048432;28;20090;-43
2022/01/07 11:12:57;;;;;;;9.60;7.22;;;6.50;99.90;;;;;;5048241;28;20025;-44
2022/01/07 11:15:23;;;;;;;13.15;7.43;;;6.60;99.90;;;;;;5048089;28;20365;-43
2022/01/07 11:17:48;;;;;;;13.35;7.65;;;6.60;99.90;;;;;;5048689;28;20461;-42
2022/01/07 11:20:16;;;;;;;11.32;7.28;;;6.60;99.90;;;;;;5048777;28;20005;-43
2022/01/07 11:22:47;;;;;;;10.68;6.60;;;6.60;99.90;;;;;;5047766;28;20113;-44
2022/01/07 11:25:15;;;;;;;12.65;7.03;;;6.70;99.90;;;;;;5048574;28;20027;-42
2022/01/07 11:27:47;;;;;;;11.02;7.05;;;6.60;99.90;;;;;;5048415;28;20013;-43
2022/01/07 11:30:21;;;;;;;11.43;6.85;;;6.70;99.90;;;;;;5047698;28;20036;-43
2022/01/07 11:32:50;;;;;;;11.95;7.25;;;6.70;99.90;;;;;;5047869;28;20499;-43
2022/01/07 11:35:19;;;;;;;9.48;6.72;;;6.70;99.90;;;;;;5048399;28;20469;-44
2022/01/07 11:37:55;;;;;;;10.48;6.63;;;6.70;99.90;;;;;;5043673;28;20017;-44
2022/01/07 11:40:46;;;;;;;12.32;7.03;;;6.70;99.90;;;;;;5047790;28;20268;-43
2022/01/07 11:43:20;;;;;;;11.85;6.68;;;6.70;99.90;;;;;;5047063;28;20110;-43
2022/01/07 11:45:46;;;;;;;12.85;6.97;;;6.80;99.90;;;;;;5047716;28;20017;-44
2022/01/07 11:48:12;;;;;;;9.63;6.75;;;6.80;99.90;;;;;;5048205;28;20467;-43
2022/01/07 11:50:56;;;;;;;9.30;6.38;;;6.80;99.90;;;;;;5046685;28;20106;-44
2022/01/07 11:53:46;;;;;;;8.80;5.90;;;6.80;99.90;;;;;;5045533;28;20044;-43
2022/01/07 11:56:14;;;;;;;14.10;7.25;;;6.90;99.90;;;;;;5047728;28;20029;-43
2022/01/07 11:58:51;;;;;;;9.77;6.05;;;6.80;99.90;;;;;;5047335;28;20381;-44
2022/01/07 12:01:37;;;;;;;11.82;5.80;;;6.90;99.90;;;;;;5047504;28;20092;-42
2022/01/07 12:04:27;;;;;;;11.55;6.43;;;6.90;99.90;;;;;;5036518;28;20033;-43
2022/01/07 12:06:53;;;;;;;10.15;5.95;;;6.90;99.90;;;;;;5047461;28;20028;-43
2022/01/07 12:09:27;;;;;;;8.80;5.63;;;6.90;99.90;;;;;;5048174;28;20036;-43
2022/01/07 12:12:00;;;;;;;8.65;5.50;;;7.00;99.90;;;;;;5046645;28;20028;-43
2022/01/07 12:14:39;;;;;;;7.85;4.38;;;7.00;99.90;;;;;;5036775;28;20029;-42
2022/01/07 12:17:11;;;;;;;8.02;5.00;;;7.10;99.90;;;;;;5047078;28;20013;-43
2022/01/07 12:19:37;;;;;;;8.05;5.15;;;7.10;99.90;;;;;;5046596;28;20523;-42
2022/01/07 12:22:07;;;;;;;8.20;5.15;;;7.20;99.90;;;;;;5047166;28;20028;-43
2022/01/07 12:24:33;;;;;;;7.78;4.18;;;7.30;99.90;;;;;;5047203;28;20029;-42
2022/01/07 12:27:13;;;;;;;7.43;4.68;;;7.30;99.90;;;;;;5045969;28;20040;-43
2022/01/07 12:29:43;;;;;;;10.18;4.70;;;7.30;99.90;;;;;;5047641;28;20029;-44
2022/01/07 12:32:11;;;;;;;9.60;4.35;;;7.30;99.90;;;;;;5046459;28;20029;-43
2022/01/07 12:34:40;;;;;;;9.98;4.50;;;7.30;99.90;;;;;;5046687;28;20105;-43
2022/01/07 12:37:14;;;;;;;10.10;4.60;;;7.40;99.90;;;;;;5047299;28;20110;-43
2022/01/07 12:39:47;;;;;;;10.85;5.35;;;7.40;99.90;;;;;;5045631;28;20071;-42
2022/01/07 12:42:13;;;;;;;13.35;5.18;;;7.40;99.90;;;;;;5047383;28;20045;-44
2022/01/07 12:44:41;;;;;;;9.52;5.63;;;7.40;99.90;;;;;;5046891;28;20017;-44
2022/01/07 12:47:08;;;;;;;9.27;4.97;;;7.50;99.90;;;;;;5046166;28;20155;-44
2022/01/07 12:49:38;;;;;;;7.75;4.85;;;7.50;99.90;;;;;;5046932;28;20558;-42
2022/01/07 12:52:15;;;;;;;10.13;5.43;;;7.40;99.90;;;;;;5046524;28;20080;-43
2022/01/07 12:54:59;;;;;;;10.57;5.82;;;7.40;99.90;;;;;;5046075;28;20040;-43
2022/01/07 12:57:32;;;;;;;9.38;6.57;;;7.40;99.90;;;;;;5046851;28;20033;-43
2022/01/07 13:00:04;;;;;;;11.48;5.22;;;7.40;99.90;;;;;;5046161;28;20028;-43
2022/01/07 13:02:29;;;;;;;9.05;5.43;;;7.40;99.90;;;;;;5047060;28;20025;-42
2022/01/07 13:05:16;;;;;;;9.57;5.78;;;7.40;99.90;;;;;;5046213;28;20407;-43